Time;durP1;ratioP1;P1;durP2;ratioP2;P2;SDS_P1;SDS_P2;PMS_P1;PMS_P2;Temp;Humidity;BMP_temperature;BMP_pressure;BME280_temperature;BME280_humidity;BME280_pressure;Samples;Min_cycle;Max_cycle;Signal;HPM_P1;HPM_P2
2020/12/24 00:01:45;;;;;;;7.85;1.45;;;;;;;;;;5041609;28;20033;-75
2020/12/24 00:04:11;;;;;;;5.15;0.88;;;;;;;;;;5047324;28;20045;-75
2020/12/24 00:06:37;;;;;;;3.83;0.90;;;;;;;;;;5044635;28;20037;-75
2020/12/24 00:09:03;;;;;;;7.90;0.90;;;;;;;;;;5044631;28;20036;-75
2020/12/24 00:11:29;;;;;;;5.15;0.82;;;;;;;;;;5044981;28;20159;-75
2020/12/24 00:13:55;;;;;;;9.82;1.35;;;;;;;;;;5042744;28;20032;-75
2020/12/24 00:16:21;;;;;;;13.77;1.13;;;;;;;;;;5060380;28;20032;-75
2020/12/24 00:18:47;;;;;;;8.80;1.05;;;;;;;;;;5049718;28;20144;-75
2020/12/24 00:21:13;;;;;;;9.10;1.10;;;;;;;;;;5046501;28;20020;-75
2020/12/24 00:23:39;;;;;;;11.15;3.55;;;;;;;;;;5061079;28;20033;-75
2020/12/24 00:26:05;;;;;;;9.50;1.55;;;;;;;;;;5041054;28;20155;-75
2020/12/24 00:28:32;;;;;;;7.60;1.60;;;;;;;;;;5055381;28;20033;-75
2020/12/24 00:30:58;;;;;;;7.15;1.33;;;;;;;;;;5040545;28;20483;-75
2020/12/24 00:33:24;;;;;;;7.70;1.20;;;;;;;;;;5042386;28;20154;-75
2020/12/24 00:35:50;;;;;;;7.25;1.10;;;;;;;;;;5046588;28;20107;-75
2020/12/24 00:38:16;;;;;;;6.63;0.90;;;;;;;;;;5055387;28;20029;-75
2020/12/24 00:40:42;;;;;;;4.78;1.00;;;;;;;;;;5035262;28;20029;-74
2020/12/24 00:43:07;;;;;;;11.10;1.55;;;;;;;;;;5046849;28;20119;-76
2020/12/24 00:45:33;;;;;;;8.65;1.58;;;;;;;;;;5042496;28;20096;-77
2020/12/24 00:47:59;;;;;;;7.97;1.00;;;;;;;;;;5040566;28;20462;-77
2020/12/24 00:50:25;;;;;;;7.07;1.15;;;;;;;;;;5035231;28;20029;-75
2020/12/24 00:52:51;;;;;;;5.15;1.23;;;;;;;;;;5034038;28;20040;-75
2020/12/24 00:55:17;;;;;;;6.05;2.05;;;;;;;;;;5043744;28;20029;-76
2020/12/24 00:57:43;;;;;;;8.30;1.45;;;;;;;;;;5041568;28;20021;-76
2020/12/24 01:00:09;;;;;;;7.90;0.98;;;;;;;;;;5037767;28;20060;-76
2020/12/24 01:02:35;;;;;;;8.13;1.33;;;;;;;;;;5044686;28;20025;-76
2020/12/24 01:05:02;;;;;;;5.15;1.88;;;;;;;;;;5038681;28;20040;-76
2020/12/24 01:07:28;;;;;;;12.95;1.73;;;;;;;;;;5034880;28;20411;-76
2020/12/24 01:09:54;;;;;;;8.90;1.45;;;;;;;;;;5041364;28;20108;-76
2020/12/24 01:12:20;;;;;;;5.72;1.27;;;;;;;;;;5044408;28;20100;-76
2020/12/24 01:14:46;;;;;;;11.00;1.20;;;;;;;;;;5048872;28;20037;-76
2020/12/24 01:17:12;;;;;;;9.55;1.40;;;;;;;;;;5048483;28;20493;-76
2020/12/24 01:19:38;;;;;;;3.83;0.90;;;;;;;;;;5050068;28;20051;-76
2020/12/24 01:22:04;;;;;;;5.63;0.98;;;;;;;;;;5048235;28;20471;-76
2020/12/24 01:24:30;;;;;;;8.55;1.55;;;;;;;;;;5050470;28;20029;-76
2020/12/24 01:26:56;;;;;;;8.93;1.10;;;;;;;;;;5048733;28;20036;-75
2020/12/24 01:29:22;;;;;;;4.88;1.00;;;;;;;;;;5049186;28;20029;-75
2020/12/24 01:31:48;;;;;;;5.65;1.75;;;;;;;;;;5047328;28;20033;-74
2020/12/24 01:34:15;;;;;;;6.65;1.17;;;;;;;;;;5043699;28;20049;-75
2020/12/24 01:36:41;;;;;;;5.55;1.30;;;;;;;;;;5044890;28;20166;-74
2020/12/24 01:39:07;;;;;;;13.13;1.70;;;;;;;;;;5044423;28;20758;-74
2020/12/24 01:41:33;;;;;;;6.25;1.20;;;;;;;;;;5048349;28;20059;-74
2020/12/24 01:43:59;;;;;;;6.60;1.60;;;;;;;;;;5063235;28;20040;-74
2020/12/24 01:46:25;;;;;;;10.88;1.33;;;;;;;;;;5048450;28;20036;-74
2020/12/24 01:48:52;;;;;;;12.45;1.52;;;;;;;;;;5048628;28;20028;-74
2020/12/24 01:51:27;;;;;;;9.48;1.55;;;;;;;;;;5035267;28;20036;-74
2020/12/24 01:53:54;;;;;;;8.75;1.92;;;;;;;;;;5048290;28;20383;-74
2020/12/24 01:56:22;;;;;;;7.97;2.45;;;;;;;;;;5034129;28;20017;-74
2020/12/24 01:58:48;;;;;;;6.75;1.13;;;;;;;;;;5037759;28;20063;-74
2020/12/24 02:01:14;;;;;;;5.20;1.08;;;;;;;;;;5044625;28;20476;-74
2020/12/24 02:03:40;;;;;;;12.30;1.40;;;;;;;;;;5038911;28;20036;-74
2020/12/24 02:06:06;;;;;;;13.25;2.05;;;;;;;;;;5033412;28;20044;-74
2020/12/24 02:08:32;;;;;;;7.93;1.42;;;;;;;;;;5044099;28;20084;-74
2020/12/24 02:10:59;;;;;;;17.98;1.50;;;;;;;;;;5047758;28;20576;-74
2020/12/24 02:13:25;;;;;;;8.13;1.38;;;;;;;;;;5047744;28;20969;-74
2020/12/24 02:15:50;;;;;;;6.10;1.63;;;;;;;;;;5047975;28;20059;-74
2020/12/24 02:18:16;;;;;;;6.85;1.20;;;;;;;;;;5047805;28;20035;-74
2020/12/24 02:20:43;;;;;;;7.40;2.15;;;;;;;;;;5033239;28;20025;-74
2020/12/24 02:23:09;;;;;;;10.05;1.65;;;;;;;;;;5037435;28;20021;-74
2020/12/24 02:25:35;;;;;;;7.65;1.77;;;;;;;;;;5031495;28;20390;-74
2020/12/24 02:28:01;;;;;;;9.25;1.60;;;;;;;;;;5046296;28;20025;-75
2020/12/24 02:30:27;;;;;;;6.78;1.17;;;;;;;;;;5034194;28;20037;-76
2020/12/24 02:32:54;;;;;;;5.20;1.42;;;;;;;;;;5027962;28;20033;-74
2020/12/24 02:35:20;;;;;;;6.85;1.20;;;;;;;;;;5027680;28;20446;-74
2020/12/24 02:37:46;;;;;;;10.90;1.30;;;;;;;;;;5048194;28;20331;-74
2020/12/24 02:40:12;;;;;;;5.60;1.40;;;;;;;;;;5047744;28;20075;-74
2020/12/24 02:42:38;;;;;;;6.80;1.15;;;;;;;;;;5033918;28;20028;-75
2020/12/24 02:45:05;;;;;;;6.32;0.80;;;;;;;;;;5048289;28;20139;-74
2020/12/24 02:47:31;;;;;;;9.93;1.73;;;;;;;;;;5052320;28;20033;-74
2020/12/24 02:49:57;;;;;;;8.20;1.27;;;;;;;;;;5047420;28;20040;-74
2020/12/24 02:52:24;;;;;;;11.20;1.42;;;;;;;;;;5047293;28;20029;-74
2020/12/24 02:54:49;;;;;;;8.63;1.90;;;;;;;;;;5047492;28;20053;-74
2020/12/24 02:57:15;;;;;;;4.60;1.30;;;;;;;;;;5063093;28;20488;-74
2020/12/24 02:59:41;;;;;;;5.70;1.35;;;;;;;;;;5047707;28;20386;-74
2020/12/24 03:02:07;;;;;;;8.10;1.30;;;;;;;;;;5047692;28;20034;-74
2020/12/24 03:04:33;;;;;;;7.75;1.90;;;;;;;;;;5042576;28;20430;-75
2020/12/24 03:06:59;;;;;;;12.65;1.40;;;;;;;;;;5038484;28;20055;-74
2020/12/24 03:09:25;;;;;;;6.88;1.90;;;;;;;;;;5033817;28;20061;-74
2020/12/24 03:11:51;;;;;;;9.25;2.55;;;;;;;;;;5045870;28;20075;-74
2020/12/24 03:14:20;;;;;;;10.43;2.30;;;;;;;;;;5035943;28;20482;-75
2020/12/24 03:16:47;;;;;;;7.70;1.07;;;;;;;;;;5038242;28;20474;-74
2020/12/24 03:19:13;;;;;;;6.65;1.38;;;;;;;;;;5051007;28;20037;-74
2020/12/24 03:21:39;;;;;;;3.88;1.05;;;;;;;;;;5045406;28;20025;-74
2020/12/24 03:24:06;;;;;;;4.78;1.58;;;;;;;;;;5042027;28;20474;-75
2020/12/24 03:26:32;;;;;;;2.17;1.75;;;;;;;;;;5050479;28;20036;-74
2020/12/24 03:28:59;;;;;;;3.80;1.48;;;;;;;;;;5057405;28;20137;-74
2020/12/24 03:31:25;;;;;;;3.33;1.00;;;;;;;;;;5060921;28;20032;-74
2020/12/24 03:33:51;;;;;;;1.35;0.75;;;;;;;;;;5046022;28;20029;-74
2020/12/24 03:36:17;;;;;;;0.68;0.45;;;;;;;;;;5043793;28;20093;-74
2020/12/24 03:38:44;;;;;;;2.35;0.30;;;;;;;;;;5052580;28;20025;-74
2020/12/24 03:41:09;;;;;;;4.13;0.43;;;;;;;;;;5047489;28;20037;-74
2020/12/24 03:43:35;;;;;;;2.60;0.30;;;;;;;;;;5039834;28;20032;-74
2020/12/24 03:46:01;;;;;;;0.90;0.30;;;;;;;;;;5046299;28;20124;-74
2020/12/24 03:48:27;;;;;;;1.15;0.43;;;;;;;;;;5050558;28;20032;-74
2020/12/24 03:50:53;;;;;;;4.13;0.40;;;;;;;;;;5057644;28;20211;-74
2020/12/24 03:53:20;;;;;;;0.30;0.15;;;;;;;;;;5049747;28;20024;-74
2020/12/24 03:55:46;;;;;;;1.77;0.20;;;;;;;;;;5043209;28;20372;-74
2020/12/24 03:58:12;;;;;;;1.25;0.38;;;;;;;;;;5048607;28;20032;-74
2020/12/24 04:00:39;;;;;;;1.33;0.30;;;;;;;;;;5036242;28;20040;-74
2020/12/24 04:03:05;;;;;;;1.52;0.50;;;;;;;;;;5040374;28;20047;-74
2020/12/24 04:05:31;;;;;;;2.47;0.22;;;;;;;;;;5045920;28;20580;-74
2020/12/24 04:07:57;;;;;;;1.63;0.40;;;;;;;;;;5057306;28;20041;-74
2020/12/24 04:10:23;;;;;;;1.05;0.20;;;;;;;;;;5043866;28;20036;-74
2020/12/24 04:12:49;;;;;;;3.30;0.20;;;;;;;;;;5038506;28;20434;-74
2020/12/24 04:15:15;;;;;;;0.50;0.20;;;;;;;;;;5041911;28;20043;-74
2020/12/24 04:17:41;;;;;;;2.55;0.35;;;;;;;;;;5035326;28;20566;-74
2020/12/24 04:20:07;;;;;;;0.68;0.20;;;;;;;;;;5064401;28;20067;-74
2020/12/24 04:22:33;;;;;;;0.82;0.10;;;;;;;;;;5048078;28;20116;-75
2020/12/24 04:25:02;;;;;;;0.88;0.20;;;;;;;;;;5029671;28;20087;-75
2020/12/24 04:27:29;;;;;;;1.23;0.20;;;;;;;;;;5043500;28;20025;-75
2020/12/24 04:29:55;;;;;;;0.30;0.10;;;;;;;;;;5049349;28;20047;-75
2020/12/24 04:32:21;;;;;;;2.05;0.20;;;;;;;;;;5049238;28;20032;-75
2020/12/24 04:34:47;;;;;;;3.35;0.28;;;;;;;;;;5049253;28;20398;-75
2020/12/24 04:37:13;;;;;;;2.58;0.25;;;;;;;;;;5049393;28;20041;-75
2020/12/24 04:39:39;;;;;;;0.82;0.10;;;;;;;;;;5050617;28;20033;-75
2020/12/24 04:42:05;;;;;;;0.32;0.10;;;;;;;;;;5056565;28;20108;-76
2020/12/24 04:44:33;;;;;;;0.65;0.45;;;;;;;;;;5044345;28;20041;-75
2020/12/24 04:46:59;;;;;;;1.00;0.10;;;;;;;;;;5036157;28;20029;-75
2020/12/24 04:49:25;;;;;;;1.00;0.22;;;;;;;;;;5036568;28;20087;-75
2020/12/24 04:51:52;;;;;;;1.00;0.40;;;;;;;;;;5058246;28;20398;-74
2020/12/24 04:54:18;;;;;;;0.75;0.20;;;;;;;;;;5030575;28;20032;-75
2020/12/24 04:56:44;;;;;;;0.30;0.10;;;;;;;;;;5033857;28;20026;-74
2020/12/24 04:59:10;;;;;;;0.60;0.45;;;;;;;;;;5046188;28;20443;-75
2020/12/24 05:01:36;;;;;;;0.73;0.13;;;;;;;;;;5038486;28;20063;-74
2020/12/24 05:04:03;;;;;;;0.75;0.25;;;;;;;;;;5046498;28;20033;-75
2020/12/24 05:06:29;;;;;;;1.10;0.30;;;;;;;;;;5049154;28;20036;-75
2020/12/24 05:08:57;;;;;;;0.63;0.20;;;;;;;;;;5034346;28;20475;-74
2020/12/24 05:11:26;;;;;;;4.88;1.25;;;;;;;;;;5048660;28;20056;-74
2020/12/24 05:13:52;;;;;;;0.98;0.30;;;;;;;;;;5035445;28;20025;-75
2020/12/24 05:16:18;;;;;;;2.22;0.20;;;;;;;;;;5034334;28;20036;-75
2020/12/24 05:18:44;;;;;;;0.40;0.10;;;;;;;;;;5036933;28;20036;-74
2020/12/24 05:21:10;;;;;;;1.73;0.30;;;;;;;;;;5046219;28;20028;-74
2020/12/24 05:23:36;;;;;;;2.15;0.30;;;;;;;;;;5038929;28;20136;-74
2020/12/24 05:26:18;;;;;;;0.47;0.20;;;;;;;;;;5059219;28;20060;-74
2020/12/24 05:28:44;;;;;;;2.17;0.60;;;;;;;;;;5038780;28;20133;-74
2020/12/24 05:31:10;;;;;;;0.17;0.10;;;;;;;;;;5030390;28;20414;-74
2020/12/24 05:33:36;;;;;;;0.47;0.10;;;;;;;;;;5048793;28;20021;-75
2020/12/24 05:36:15;;;;;;;0.17;0.10;;;;;;;;;;5049139;28;20678;-75
2020/12/24 05:38:41;;;;;;;2.97;0.32;;;;;;;;;;5048186;28;20036;-75
2020/12/24 05:41:26;;;;;;;0.20;0.15;;;;;;;;;;5048215;28;20029;-75
2020/12/24 05:44:04;;;;;;;1.02;0.15;;;;;;;;;;5037028;28;20040;-74
2020/12/24 05:46:38;;;;;;;0.75;0.20;;;;;;;;;;5036140;28;20057;-74
2020/12/24 05:49:34;;;;;;;2.72;0.20;;;;;;;;;;5054001;28;20498;-75
2020/12/24 05:52:01;;;;;;;2.03;0.20;;;;;;;;;;5038010;28;20059;-74
2020/12/24 05:54:28;;;;;;;1.00;0.20;;;;;;;;;;5048827;28;20036;-74
2020/12/24 05:56:54;;;;;;;0.60;0.20;;;;;;;;;;5034144;28;20483;-74
2020/12/24 05:59:24;;;;;;;1.10;0.20;;;;;;;;;;5047540;28;20029;-74
2020/12/24 06:02:09;;;;;;;1.02;0.20;;;;;;;;;;5035669;28;20029;-75
2020/12/24 06:04:44;;;;;;;0.90;0.28;;;;;;;;;;5028150;28;20383;-74
2020/12/24 06:07:30;;;;;;;1.95;0.20;;;;;;;;;;5041924;28;20029;-75
2020/12/24 06:10:03;;;;;;;1.75;0.20;;;;;;;;;;5044102;28;20061;-74
2020/12/24 06:12:29;;;;;;;1.10;0.22;;;;;;;;;;5044297;28;20391;-74
2020/12/24 06:14:56;;;;;;;3.92;0.77;;;;;;;;;;5043295;28;20037;-75
2020/12/24 06:17:22;;;;;;;0.63;0.10;;;;;;;;;;5027905;28;20030;-74
2020/12/24 06:19:49;;;;;;;1.17;0.20;;;;;;;;;;5048173;28;20130;-74
2020/12/24 06:22:15;;;;;;;2.42;0.30;;;;;;;;;;5033701;28;20104;-75
2020/12/24 06:24:43;;;;;;;1.17;0.30;;;;;;;;;;5026068;28;20017;-74
2020/12/24 06:27:16;;;;;;;0.75;0.20;;;;;;;;;;5043231;28;20036;-74
2020/12/24 06:29:44;;;;;;;1.60;0.10;;;;;;;;;;5045719;28;20044;-74
2020/12/24 06:32:12;;;;;;;0.75;0.20;;;;;;;;;;5048027;28;20025;-74
2020/12/24 06:34:41;;;;;;;3.10;0.30;;;;;;;;;;5047438;28;20559;-74
2020/12/24 06:37:17;;;;;;;1.20;0.30;;;;;;;;;;5038803;28;20037;-74
2020/12/24 06:39:45;;;;;;;2.70;0.40;;;;;;;;;;5045269;28;20498;-74
2020/12/24 06:42:30;;;;;;;0.52;0.20;;;;;;;;;;5048082;28;20442;-74
2020/12/24 06:44:56;;;;;;;1.38;0.30;;;;;;;;;;5050195;28;20033;-74
2020/12/24 06:47:21;;;;;;;0.93;0.45;;;;;;;;;;5051770;28;20390;-74
2020/12/24 06:49:47;;;;;;;1.13;0.60;;;;;;;;;;5052673;28;20574;-74
2020/12/24 06:52:26;;;;;;;1.35;0.60;;;;;;;;;;5050154;28;20043;-74
2020/12/24 06:55:11;;;;;;;2.53;0.88;;;;;;;;;;5053273;28;20259;-75
2020/12/24 06:57:38;;;;;;;3.03;1.25;;;;;;;;;;5037256;28;20021;-75
2020/12/24 07:00:20;;;;;;;4.25;1.70;;;;;;;;;;5053116;28;20036;-75
2020/12/24 07:02:50;;;;;;;3.95;1.60;;;;;;;;;;5045598;28;20031;-76
2020/12/24 07:05:35;;;;;;;4.53;1.63;;;;;;;;;;5044617;28;20040;-75
2020/12/24 07:08:01;;;;;;;3.03;1.52;;;;;;;;;;5046979;28;20546;-75
2020/12/24 07:10:53;;;;;;;4.72;1.45;;;;;;;;;;5044318;28;20119;-76
2020/12/24 07:13:35;;;;;;;2.80;1.58;;;;;;;;;;5047075;28;20497;-75
2020/12/24 07:16:01;;;;;;;4.95;1.23;;;;;;;;;;5051155;28;20429;-76
2020/12/24 07:18:30;;;;;;;2.88;1.58;;;;;;;;;;5049771;28;20406;-75
2020/12/24 07:20:58;;;;;;;4.00;1.33;;;;;;;;;;5049466;28;20095;-76
2020/12/24 07:23:28;;;;;;;2.97;0.65;;;;;;;;;;5039452;28;20043;-76
2020/12/24 07:25:54;;;;;;;3.58;0.60;;;;;;;;;;5049786;28;20395;-75
2020/12/24 07:28:20;;;;;;;2.65;0.57;;;;;;;;;;5044353;28;20053;-75
2020/12/24 07:30:56;;;;;;;4.05;0.52;;;;;;;;;;5031025;28;20029;-75
2020/12/24 07:33:22;;;;;;;1.65;0.45;;;;;;;;;;5035890;28;20410;-76
2020/12/24 07:35:48;;;;;;;5.25;1.38;;;;;;;;;;5051048;28;20319;-75
2020/12/24 07:38:14;;;;;;;5.65;1.75;;;;;;;;;;5049222;28;20409;-76
2020/12/24 07:40:41;;;;;;;2.10;0.52;;;;;;;;;;5050973;28;20032;-75
2020/12/24 07:43:07;;;;;;;3.08;0.60;;;;;;;;;;5036436;28;20109;-75
2020/12/24 07:45:33;;;;;;;7.60;1.02;;;;;;;;;;5050773;28;20386;-75
2020/12/24 07:47:59;;;;;;;3.42;0.40;;;;;;;;;;5051986;28;20040;-76
2020/12/24 07:50:29;;;;;;;3.65;0.38;;;;;;;;;;5050668;28;20068;-76
2020/12/24 07:52:56;;;;;;;5.57;0.50;;;;;;;;;;5051016;28;20028;-75
2020/12/24 07:55:22;;;;;;;3.60;0.50;;;;;;;;;;5063508;28;20522;-75
2020/12/24 07:57:48;;;;;;;4.80;0.93;;;;;;;;;;5036686;28;20029;-75
2020/12/24 08:00:14;;;;;;;2.00;0.30;;;;;;;;;;5039129;28;20459;-76
2020/12/24 08:02:40;;;;;;;2.90;0.55;;;;;;;;;;5045208;28;20557;-76
2020/12/24 08:05:06;;;;;;;3.13;0.57;;;;;;;;;;5042222;28;20517;-76
2020/12/24 08:07:32;;;;;;;3.00;0.68;;;;;;;;;;5052891;28;20021;-75
2020/12/24 08:10:10;;;;;;;2.33;0.60;;;;;;;;;;5051195;28;20033;-76
2020/12/24 08:12:36;;;;;;;3.63;0.70;;;;;;;;;;5040837;28;20039;-75
2020/12/24 08:15:15;;;;;;;2.72;0.75;;;;;;;;;;5038937;28;20678;-75
2020/12/24 08:18:04;;;;;;;3.03;0.50;;;;;;;;;;5047875;28;20033;-75
2020/12/24 08:20:57;;;;;;;2.80;0.85;;;;;;;;;;5035206;28;20072;-75
2020/12/24 08:23:25;;;;;;;1.45;0.40;;;;;;;;;;5038538;28;20021;-75
2020/12/24 08:25:52;;;;;;;2.40;0.40;;;;;;;;;;5050108;28;20029;-76
2020/12/24 08:28:18;;;;;;;1.88;0.50;;;;;;;;;;5050703;28;20546;-76
2020/12/24 08:30:45;;;;;;;2.97;0.60;;;;;;;;;;5050973;28;20464;-76
2020/12/24 08:33:11;;;;;;;6.75;0.52;;;;;;;;;;5050508;28;20070;-76
2020/12/24 08:35:37;;;;;;;3.50;0.40;;;;;;;;;;5051354;28;20083;-76
2020/12/24 08:38:10;;;;;;;1.98;0.70;;;;;;;;;;5048458;28;20032;-76
2020/12/24 08:40:36;;;;;;;3.70;0.65;;;;;;;;;;5039888;28;20032;-76
2020/12/24 08:43:09;;;;;;;5.85;0.75;;;;;;;;;;5052400;28;20037;-75
2020/12/24 08:45:43;;;;;;;6.45;0.98;;;;;;;;;;5043582;28;20083;-75
2020/12/24 08:48:09;;;;;;;7.93;1.77;;;;;;;;;;5046440;28;20029;-75
2020/12/24 08:50:36;;;;;;;4.80;0.70;;;;;;;;;;5043368;28;20065;-76
2020/12/24 08:53:05;;;;;;;8.25;1.33;;;;;;;;;;5044972;28;20028;-75
2020/12/24 08:55:31;;;;;;;5.78;0.90;;;;;;;;;;5051033;28;20025;-75
2020/12/24 08:57:57;;;;;;;8.73;1.65;;;;;;;;;;5049918;28;20025;-75
2020/12/24 09:00:24;;;;;;;11.00;1.13;;;;;;;;;;5050980;28;20385;-74
2020/12/24 09:02:50;;;;;;;6.35;0.90;;;;;;;;;;5066013;28;20371;-75
2020/12/24 09:05:21;;;;;;;7.00;1.02;;;;;;;;;;5050582;28;20107;-75
2020/12/24 09:07:47;;;;;;;9.32;1.42;;;;;;;;;;5062037;28;20136;-75
2020/12/24 09:10:31;;;;;;;6.57;0.85;;;;;;;;;;5043297;28;20584;-74
2020/12/24 09:12:58;;;;;;;12.32;1.80;;;;;;;;;;5052395;28;20482;-75
2020/12/24 09:15:26;;;;;;;10.88;2.05;;;;;;;;;;5051750;28;20029;-75
2020/12/24 09:17:56;;;;;;;8.57;1.70;;;;;;;;;;5051148;28;20048;-75
2020/12/24 09:20:23;;;;;;;13.13;1.30;;;;;;;;;;5051068;28;20058;-75
2020/12/24 09:22:50;;;;;;;9.05;1.13;;;;;;;;;;5066082;28;20017;-75
2020/12/24 09:25:29;;;;;;;10.82;1.48;;;;;;;;;;5051911;28;20520;-75
2020/12/24 09:27:55;;;;;;;11.05;1.27;;;;;;;;;;5051785;28;20036;-75
2020/12/24 09:30:21;;;;;;;9.02;1.20;;;;;;;;;;5052346;28;20037;-74
2020/12/24 09:32:57;;;;;;;7.65;1.08;;;;;;;;;;5052510;28;20029;-75
2020/12/24 09:35:24;;;;;;;8.43;1.25;;;;;;;;;;5052858;28;20102;-75
2020/12/24 09:37:50;;;;;;;9.40;1.58;;;;;;;;;;5067003;28;20144;-75
2020/12/24 09:40:16;;;;;;;10.95;1.70;;;;;;;;;;5067122;28;20469;-76
2020/12/24 09:42:42;;;;;;;5.00;1.30;;;;;;;;;;5051447;28;20032;-75
2020/12/24 09:45:08;;;;;;;10.35;1.45;;;;;;;;;;5052683;28;20032;-75
2020/12/24 09:47:34;;;;;;;11.50;1.70;;;;;;;;;;5055498;28;20051;-76
2020/12/24 09:50:00;;;;;;;11.50;1.63;;;;;;;;;;5066855;28;20033;-75
2020/12/24 09:52:26;;;;;;;11.68;1.90;;;;;;;;;;5076560;28;20017;-76
2020/12/24 09:54:51;;;;;;;11.07;1.60;;;;;;;;;;5070661;28;20032;-76
2020/12/24 09:57:17;;;;;;;10.45;1.73;;;;;;;;;;5054911;28;20009;-76
2020/12/24 09:59:43;;;;;;;8.55;1.25;;;;;;;;;;5088244;28;20009;-76
2020/12/24 10:02:09;;;;;;;4.35;0.98;;;;;;;;;;5071482;28;20024;-77
2020/12/24 10:04:35;;;;;;;4.63;1.02;;;;;;;;;;5079212;28;20048;-76
2020/12/24 10:07:01;;;;;;;8.27;1.08;;;;;;;;;;5057136;28;20036;-75
2020/12/24 10:09:27;;;;;;;9.10;1.13;;;;;;;;;;5049597;28;20029;-75
2020/12/24 10:11:53;;;;;;;8.68;2.33;;;;;;;;;;5052845;28;20037;-76
2020/12/24 10:14:22;;;;;;;10.05;2.00;;;;;;;;;;5057841;28;21590;-76
2020/12/24 10:16:48;;;;;;;8.65;1.13;;;;;;;;;;5057551;28;20065;-76
2020/12/24 10:19:13;;;;;;;10.93;1.70;;;;;;;;;;5050566;28;20027;-76
2020/12/24 10:21:40;;;;;;;12.55;1.60;;;;;;;;;;5050869;28;20090;-76
2020/12/24 10:24:06;;;;;;;13.05;2.03;;;;;;;;;;5051316;28;20029;-76
2020/12/24 10:26:32;;;;;;;5.65;1.42;;;;;;;;;;5048926;28;20052;-75
2020/12/24 10:28:58;;;;;;;9.23;1.55;;;;;;;;;;5046699;28;20037;-76
2020/12/24 10:31:24;;;;;;;8.45;1.98;;;;;;;;;;5062919;28;20061;-75
2020/12/24 10:33:50;;;;;;;12.18;1.63;;;;;;;;;;5047392;28;20053;-76
2020/12/24 10:36:21;;;;;;;13.20;1.70;;;;;;;;;;5070347;28;20028;-75
2020/12/24 10:38:47;;;;;;;9.10;1.23;;;;;;;;;;5040584;28;20029;-75
2020/12/24 10:41:13;;;;;;;13.90;2.00;;;;;;;;;;5047424;28;20491;-75
2020/12/24 10:43:39;;;;;;;9.35;1.65;;;;;;;;;;5049849;28;20183;-75
2020/12/24 10:46:05;;;;;;;10.07;1.52;;;;;;;;;;5046716;28;20548;-75
2020/12/24 10:48:30;;;;;;;8.27;1.33;;;;;;;;;;5035140;28;20111;-75
2020/12/24 10:50:56;;;;;;;18.73;1.58;;;;;;;;;;5037511;28;20068;-76
2020/12/24 10:53:22;;;;;;;14.13;3.25;;;;;;;;;;5036792;28;20053;-75
2020/12/24 10:55:48;;;;;;;11.60;2.83;;;;;;;;;;5037799;28;20189;-75
2020/12/24 10:58:15;;;;;;;14.27;2.13;;;;;;;;;;5036094;28;20021;-75
2020/12/24 11:00:41;;;;;;;10.88;1.70;;;;;;;;;;5045402;28;20076;-76
2020/12/24 11:03:07;;;;;;;9.27;1.75;;;;;;;;;;5038994;28;20367;-75
2020/12/24 11:05:33;;;;;;;10.25;1.20;;;;;;;;;;5040768;28;20108;-76
2020/12/24 11:07:59;;;;;;;10.77;1.95;;;;;;;;;;5043707;28;20945;-76
2020/12/24 11:10:25;;;;;;;8.80;1.75;;;;;;;;;;5039123;28;20066;-76
2020/12/24 11:12:50;;;;;;;9.00;1.88;;;;;;;;;;5032869;28;20092;-75
2020/12/24 11:15:16;;;;;;;7.55;1.75;;;;;;;;;;5033353;28;20551;-75
2020/12/24 11:17:42;;;;;;;11.27;1.60;;;;;;;;;;5041213;28;20109;-74
2020/12/24 11:20:08;;;;;;;8.35;2.00;;;;;;;;;;5041527;28;20039;-75
2020/12/24 11:22:34;;;;;;;8.20;1.42;;;;;;;;;;5034137;28;20444;-75
2020/12/24 11:25:00;;;;;;;17.35;2.03;;;;;;;;;;5037925;28;20044;-75
2020/12/24 11:27:26;;;;;;;15.57;2.30;;;;;;;;;;5049033;28;20032;-75
2020/12/24 11:29:52;;;;;;;9.77;2.00;;;;;;;;;;5045746;28;20503;-76
2020/12/24 11:32:18;;;;;;;13.73;4.18;;;;;;;;;;5053514;28;20536;-75
2020/12/24 11:34:44;;;;;;;29.48;15.95;;;;;;;;;;5054364;28;20666;-74
2020/12/24 11:37:10;;;;;;;15.82;3.65;;;;;;;;;;5038284;28;20545;-75
2020/12/24 11:39:36;;;;;;;9.88;1.73;;;;;;;;;;5058719;28;20017;-75
2020/12/24 11:42:02;;;;;;;12.15;2.17;;;;;;;;;;5039610;28;20073;-75
2020/12/24 11:44:28;;;;;;;10.00;1.15;;;;;;;;;;5042167;28;20551;-75
2020/12/24 11:46:54;;;;;;;10.05;1.23;;;;;;;;;;5042434;28;20030;-76
2020/12/24 11:49:19;;;;;;;8.63;1.55;;;;;;;;;;5037967;28;20029;-75
2020/12/24 11:51:45;;;;;;;9.55;1.15;;;;;;;;;;5035192;28;20129;-75
2020/12/24 11:54:11;;;;;;;5.90;1.52;;;;;;;;;;5056174;28;20025;-75
2020/12/24 11:56:37;;;;;;;8.85;0.85;;;;;;;;;;5037524;28;20136;-74
2020/12/24 11:59:03;;;;;;;10.25;1.60;;;;;;;;;;5033138;28;20513;-74
2020/12/24 12:01:29;;;;;;;7.55;1.48;;;;;;;;;;5039498;28;20171;-75
2020/12/24 12:03:56;;;;;;;4.60;1.02;;;;;;;;;;5042449;28;20032;-74
2020/12/24 12:06:22;;;;;;;10.65;1.90;;;;;;;;;;5056870;28;20436;-75
2020/12/24 12:08:51;;;;;;;8.73;1.23;;;;;;;;;;5043450;28;20037;-75
2020/12/24 12:11:17;;;;;;;6.38;0.90;;;;;;;;;;5044501;28;20028;-75
2020/12/24 12:13:47;;;;;;;5.65;2.03;;;;;;;;;;5036789;28;20032;-75
2020/12/24 12:16:13;;;;;;;6.00;0.50;;;;;;;;;;5037830;28;20167;-75
2020/12/24 12:18:39;;;;;;;4.00;0.68;;;;;;;;;;5048317;28;20020;-75
2020/12/24 12:21:05;;;;;;;3.00;0.73;;;;;;;;;;5050190;28;20044;-75
2020/12/24 12:23:32;;;;;;;8.65;0.60;;;;;;;;;;5065403;28;20521;-74
2020/12/24 12:25:57;;;;;;;2.20;0.45;;;;;;;;;;5048243;28;20057;-74
2020/12/24 12:28:23;;;;;;;4.88;0.40;;;;;;;;;;5052079;28;20114;-75
2020/12/24 12:30:49;;;;;;;2.90;0.63;;;;;;;;;;5066601;28;20079;-75
2020/12/24 12:33:15;;;;;;;6.68;0.60;;;;;;;;;;5049326;28;20056;-75
2020/12/24 12:35:41;;;;;;;1.92;0.70;;;;;;;;;;5040673;28;20105;-75
2020/12/24 12:38:07;;;;;;;5.85;0.60;;;;;;;;;;5046334;28;20029;-75
2020/12/24 12:40:33;;;;;;;8.10;0.80;;;;;;;;;;5048642;28;20181;-74
2020/12/24 12:42:59;;;;;;;1.80;0.50;;;;;;;;;;5047875;28;20033;-75
2020/12/24 12:45:26;;;;;;;6.63;0.73;;;;;;;;;;5037151;28;20035;-75
2020/12/24 12:47:51;;;;;;;8.05;0.60;;;;;;;;;;5035625;28;20029;-74
2020/12/24 12:50:17;;;;;;;4.93;0.98;;;;;;;;;;5044928;28;20620;-74
2020/12/24 12:52:43;;;;;;;4.97;0.68;;;;;;;;;;5049377;28;20546;-75
2020/12/24 12:55:09;;;;;;;5.25;0.85;;;;;;;;;;5035162;28;20116;-75
2020/12/24 12:57:35;;;;;;;7.25;1.20;;;;;;;;;;5049609;28;20043;-74
2020/12/24 13:00:08;;;;;;;5.53;1.15;;;;;;;;;;5049015;28;20025;-75
2020/12/24 13:02:35;;;;;;;10.18;1.88;;;;;;;;;;5064197;28;20029;-75
2020/12/24 13:05:01;;;;;;;10.55;1.48;;;;;;;;;;5064300;28;20053;-74
2020/12/24 13:07:27;;;;;;;7.28;1.35;;;;;;;;;;5032520;28;20112;-74
2020/12/24 13:09:53;;;;;;;6.75;1.35;;;;;;;;;;5037526;28;20108;-75
2020/12/24 13:12:18;;;;;;;5.35;1.25;;;;;;;;;;5048103;28;20115;-76
2020/12/24 13:14:44;;;;;;;9.63;1.08;;;;;;;;;;5038376;28;20024;-76
2020/12/24 13:17:10;;;;;;;6.80;0.95;;;;;;;;;;5041917;28;20029;-76
2020/12/24 13:19:36;;;;;;;9.82;0.73;;;;;;;;;;5032800;28;20442;-75
2020/12/24 13:22:05;;;;;;;6.63;1.20;;;;;;;;;;5053867;28;20071;-75
2020/12/24 13:24:31;;;;;;;12.00;1.58;;;;;;;;;;5043940;28;20056;-75
2020/12/24 13:26:58;;;;;;;7.55;1.77;;;;;;;;;;5042690;28;20379;-75
2020/12/24 13:29:24;;;;;;;9.38;1.85;;;;;;;;;;5041740;28;20020;-76
2020/12/24 13:31:55;;;;;;;9.88;1.58;;;;;;;;;;5029790;28;20026;-76
2020/12/24 13:34:21;;;;;;;7.35;1.30;;;;;;;;;;5036603;28;20021;-76
2020/12/24 13:36:49;;;;;;;10.18;2.35;;;;;;;;;;5037640;28;20036;-76
2020/12/24 13:39:15;;;;;;;7.40;1.77;;;;;;;;;;5044986;28;20140;-75
2020/12/24 13:41:41;;;;;;;6.35;1.40;;;;;;;;;;5055577;28;20502;-75
2020/12/24 13:44:07;;;;;;;12.80;2.17;;;;;;;;;;5054974;28;20033;-76
2020/12/24 13:46:33;;;;;;;14.15;2.22;;;;;;;;;;5053609;28;20033;-75
2020/12/24 13:48:59;;;;;;;14.20;2.30;;;;;;;;;;5040196;28;20055;-75
2020/12/24 13:51:25;;;;;;;11.10;1.85;;;;;;;;;;5044677;28;20025;-75
2020/12/24 13:53:51;;;;;;;10.35;1.75;;;;;;;;;;5041260;28;20119;-75
2020/12/24 13:56:17;;;;;;;10.55;1.95;;;;;;;;;;5045647;28;20025;-75
2020/12/24 13:58:43;;;;;;;4.85;1.48;;;;;;;;;;5040860;28;20103;-75
2020/12/24 14:01:12;;;;;;;3.53;1.02;;;;;;;;;;5044589;28;20072;-76
2020/12/24 14:03:38;;;;;;;6.22;1.23;;;;;;;;;;5038417;28;20027;-75
2020/12/24 14:06:04;;;;;;;7.90;1.23;;;;;;;;;;5041226;28;20035;-74
2020/12/24 14:08:30;;;;;;;8.82;1.13;;;;;;;;;;5037173;28;20033;-73
2020/12/24 14:10:56;;;;;;;4.78;1.10;;;;;;;;;;5037751;28;20365;-73
2020/12/24 14:13:22;;;;;;;5.55;1.08;;;;;;;;;;5036343;28;20036;-74
2020/12/24 14:15:47;;;;;;;8.70;1.42;;;;;;;;;;5031950;28;20039;-73
2020/12/24 14:18:13;;;;;;;8.75;2.30;;;;;;;;;;5045156;28;20025;-74
2020/12/24 14:20:40;;;;;;;15.95;2.53;;;;;;;;;;5027366;28;20065;-74
2020/12/24 14:23:09;;;;;;;12.75;2.30;;;;;;;;;;5041070;28;20037;-74
2020/12/24 14:25:39;;;;;;;7.28;0.80;;;;;;;;;;5032128;28;20043;-74
2020/12/24 14:28:04;;;;;;;5.33;0.60;;;;;;;;;;5043494;28;20409;-74
2020/12/24 14:30:30;;;;;;;10.55;1.52;;;;;;;;;;5038892;28;20029;-74
2020/12/24 14:32:56;;;;;;;8.35;0.90;;;;;;;;;;5031509;28;20029;-74
2020/12/24 14:35:22;;;;;;;13.65;1.08;;;;;;;;;;5030052;28;20053;-74
2020/12/24 14:37:48;;;;;;;2.70;0.80;;;;;;;;;;5036455;28;20045;-74
2020/12/24 14:40:14;;;;;;;6.65;0.60;;;;;;;;;;5036957;28;20021;-73
2020/12/24 14:42:40;;;;;;;4.15;0.85;;;;;;;;;;5054738;28;20494;-74